sensor_id;sensor_type;location;lat;lon;timestamp;P1;durP1;ratioP1;P2;durP2;ratioP2
6955;SDS011;50345;51.136;16.886;2024-03-02T00:02:12;67.10;;;56.22;;
6955;SDS011;50345;51.136;16.886;2024-03-02T00:04:37;68.50;;;56.17;;
6955;SDS011;50345;51.136;16.886;2024-03-02T00:07:03;70.00;;;55.97;;
6955;SDS011;50345;51.136;16.886;2024-03-02T00:09:29;70.00;;;56.10;;
6955;SDS011;50345;51.136;16.886;2024-03-02T00:11:55;69.97;;;57.47;;
6955;SDS011;50345;51.136;16.886;2024-03-02T00:14:21;73.50;;;59.40;;
6955;SDS011;50345;51.136;16.886;2024-03-02T00:16:49;71.65;;;55.80;;
6955;SDS011;50345;51.136;16.886;2024-03-02T00:19:16;70.65;;;58.92;;
6955;SDS011;50345;51.136;16.886;2024-03-02T00:21:42;75.17;;;58.30;;
6955;SDS011;50345;51.136;16.886;2024-03-02T00:24:12;69.83;;;59.27;;
6955;SDS011;50345;51.136;16.886;2024-03-02T00:26:48;75.10;;;57.03;;
6955;SDS011;50345;51.136;16.886;2024-03-02T00:29:17;76.60;;;60.97;;
6955;SDS011;50345;51.136;16.886;2024-03-02T00:31:44;82.65;;;68.88;;
6955;SDS011;50345;51.136;16.886;2024-03-02T00:34:10;89.17;;;66.37;;
6955;SDS011;50345;51.136;16.886;2024-03-02T00:36:38;82.53;;;61.47;;
6955;SDS011;50345;51.136;16.886;2024-03-02T00:39:04;76.27;;;59.30;;
6955;SDS011;50345;51.136;16.886;2024-03-02T00:41:32;78.88;;;60.88;;
6955;SDS011;50345;51.136;16.886;2024-03-02T00:43:59;69.30;;;58.47;;
6955;SDS011;50345;51.136;16.886;2024-03-02T00:46:36;75.65;;;59.17;;
6955;SDS011;50345;51.136;16.886;2024-03-02T00:49:04;77.13;;;60.47;;
6955;SDS011;50345;51.136;16.886;2024-03-02T00:51:45;72.13;;;58.77;;
6955;SDS011;50345;51.136;16.886;2024-03-02T00:54:13;76.97;;;61.75;;
6955;SDS011;50345;51.136;16.886;2024-03-02T00:56:39;80.77;;;57.40;;
6955;SDS011;50345;51.136;16.886;2024-03-02T00:59:07;73.10;;;60.90;;
6955;SDS011;50345;51.136;16.886;2024-03-02T01:01:34;78.07;;;57.67;;
6955;SDS011;50345;51.136;16.886;2024-03-02T01:03:59;73.80;;;58.23;;
6955;SDS011;50345;51.136;16.886;2024-03-02T01:06:25;76.03;;;56.37;;
6955;SDS011;50345;51.136;16.886;2024-03-02T01:08:51;71.30;;;58.20;;
6955;SDS011;50345;51.136;16.886;2024-03-02T01:11:17;72.60;;;58.63;;
6955;SDS011;50345;51.136;16.886;2024-03-02T01:13:43;80.30;;;58.58;;
6955;SDS011;50345;51.136;16.886;2024-03-02T01:16:09;70.32;;;55.10;;
6955;SDS011;50345;51.136;16.886;2024-03-02T01:18:35;73.57;;;57.80;;
6955;SDS011;50345;51.136;16.886;2024-03-02T01:21:01;71.73;;;57.60;;
6955;SDS011;50345;51.136;16.886;2024-03-02T01:23:26;76.93;;;57.17;;
6955;SDS011;50345;51.136;16.886;2024-03-02T01:25:52;69.13;;;56.13;;
6955;SDS011;50345;51.136;16.886;2024-03-02T01:28:18;79.90;;;58.27;;
6955;SDS011;50345;51.136;16.886;2024-03-02T01:30:44;74.67;;;60.47;;
6955;SDS011;50345;51.136;16.886;2024-03-02T01:33:10;76.30;;;56.60;;
6955;SDS011;50345;51.136;16.886;2024-03-02T01:35:36;72.63;;;59.00;;
6955;SDS011;50345;51.136;16.886;2024-03-02T01:38:02;69.90;;;56.70;;
6955;SDS011;50345;51.136;16.886;2024-03-02T01:40:28;71.10;;;58.38;;
6955;SDS011;50345;51.136;16.886;2024-03-02T01:42:54;75.57;;;57.70;;
6955;SDS011;50345;51.136;16.886;2024-03-02T01:45:20;73.43;;;57.80;;
6955;SDS011;50345;51.136;16.886;2024-03-02T01:47:46;80.15;;;59.10;;
6955;SDS011;50345;51.136;16.886;2024-03-02T01:50:12;72.83;;;57.50;;
6955;SDS011;50345;51.136;16.886;2024-03-02T01:52:38;71.67;;;58.50;;
6955;SDS011;50345;51.136;16.886;2024-03-02T01:55:05;76.40;;;58.15;;
6955;SDS011;50345;51.136;16.886;2024-03-02T01:57:31;74.28;;;60.38;;
6955;SDS011;50345;51.136;16.886;2024-03-02T01:59:57;78.55;;;58.53;;
6955;SDS011;50345;51.136;16.886;2024-03-02T02:02:23;72.33;;;57.47;;
6955;SDS011;50345;51.136;16.886;2024-03-02T02:04:49;74.80;;;59.00;;
6955;SDS011;50345;51.136;16.886;2024-03-02T02:07:14;78.37;;;58.70;;
6955;SDS011;50345;51.136;16.886;2024-03-02T02:09:43;79.73;;;58.70;;
6955;SDS011;50345;51.136;16.886;2024-03-02T02:12:09;71.95;;;59.50;;
6955;SDS011;50345;51.136;16.886;2024-03-02T02:14:35;71.47;;;56.97;;
6955;SDS011;50345;51.136;16.886;2024-03-02T02:17:01;73.30;;;59.63;;
6955;SDS011;50345;51.136;16.886;2024-03-02T02:19:27;76.57;;;57.70;;
6955;SDS011;50345;51.136;16.886;2024-03-02T02:21:53;76.67;;;58.90;;
6955;SDS011;50345;51.136;16.886;2024-03-02T02:24:19;78.97;;;60.15;;
6955;SDS011;50345;51.136;16.886;2024-03-02T02:26:45;72.70;;;58.50;;
6955;SDS011;50345;51.136;16.886;2024-03-02T02:29:10;82.00;;;58.80;;
6955;SDS011;50345;51.136;16.886;2024-03-02T02:31:37;70.00;;;58.63;;
6955;SDS011;50345;51.136;16.886;2024-03-02T02:34:03;71.13;;;58.13;;
6955;SDS011;50345;51.136;16.886;2024-03-02T02:36:30;77.20;;;60.42;;
6955;SDS011;50345;51.136;16.886;2024-03-02T02:38:56;81.78;;;57.92;;
6955;SDS011;50345;51.136;16.886;2024-03-02T02:41:22;76.65;;;61.60;;
6955;SDS011;50345;51.136;16.886;2024-03-02T02:43:48;77.37;;;61.00;;
6955;SDS011;50345;51.136;16.886;2024-03-02T02:46:13;73.30;;;58.10;;
6955;SDS011;50345;51.136;16.886;2024-03-02T02:48:39;77.80;;;56.20;;
6955;SDS011;50345;51.136;16.886;2024-03-02T02:51:04;78.60;;;58.90;;
6955;SDS011;50345;51.136;16.886;2024-03-02T02:53:30;74.03;;;56.00;;
6955;SDS011;50345;51.136;16.886;2024-03-02T02:55:56;70.87;;;56.20;;
6955;SDS011;50345;51.136;16.886;2024-03-02T02:58:21;79.83;;;59.77;;
6955;SDS011;50345;51.136;16.886;2024-03-02T03:00:47;70.33;;;56.10;;
6955;SDS011;50345;51.136;16.886;2024-03-02T03:03:13;77.10;;;58.57;;
6955;SDS011;50345;51.136;16.886;2024-03-02T03:05:38;76.00;;;59.87;;
6955;SDS011;50345;51.136;16.886;2024-03-02T03:08:04;73.77;;;59.87;;
6955;SDS011;50345;51.136;16.886;2024-03-02T03:10:29;77.63;;;58.17;;
6955;SDS011;50345;51.136;16.886;2024-03-02T03:12:55;72.63;;;57.60;;
6955;SDS011;50345;51.136;16.886;2024-03-02T03:15:21;75.30;;;59.63;;
6955;SDS011;50345;51.136;16.886;2024-03-02T03:17:46;74.50;;;59.27;;
6955;SDS011;50345;51.136;16.886;2024-03-02T03:20:12;76.10;;;56.43;;
6955;SDS011;50345;51.136;16.886;2024-03-02T03:22:39;75.57;;;59.05;;
6955;SDS011;50345;51.136;16.886;2024-03-02T03:25:04;76.20;;;56.53;;
6955;SDS011;50345;51.136;16.886;2024-03-02T03:27:30;80.28;;;58.72;;
6955;SDS011;50345;51.136;16.886;2024-03-02T03:29:57;71.13;;;54.63;;
6955;SDS011;50345;51.136;16.886;2024-03-02T03:32:22;81.77;;;58.53;;
6955;SDS011;50345;51.136;16.886;2024-03-02T03:34:48;69.30;;;56.83;;
6955;SDS011;50345;51.136;16.886;2024-03-02T03:37:14;79.43;;;57.70;;
6955;SDS011;50345;51.136;16.886;2024-03-02T03:39:40;75.70;;;58.88;;
6955;SDS011;50345;51.136;16.886;2024-03-02T03:42:06;77.27;;;58.57;;
6955;SDS011;50345;51.136;16.886;2024-03-02T03:44:31;77.87;;;59.30;;
6955;SDS011;50345;51.136;16.886;2024-03-02T03:46:57;75.97;;;53.83;;
6955;SDS011;50345;51.136;16.886;2024-03-02T03:49:23;77.63;;;57.10;;
6955;SDS011;50345;51.136;16.886;2024-03-02T03:51:48;76.47;;;59.27;;
6955;SDS011;50345;51.136;16.886;2024-03-02T03:54:14;76.37;;;57.00;;
6955;SDS011;50345;51.136;16.886;2024-03-02T03:56:40;74.77;;;57.57;;
6955;SDS011;50345;51.136;16.886;2024-03-02T03:59:05;76.23;;;55.40;;
6955;SDS011;50345;51.136;16.886;2024-03-02T04:01:31;71.77;;;56.47;;
6955;SDS011;50345;51.136;16.886;2024-03-02T04:03:57;79.70;;;56.50;;
6955;SDS011;50345;51.136;16.886;2024-03-02T04:06:23;72.30;;;54.53;;
6955;SDS011;50345;51.136;16.886;2024-03-02T04:08:48;72.50;;;56.57;;
6955;SDS011;50345;51.136;16.886;2024-03-02T04:11:14;74.07;;;55.93;;
6955;SDS011;50345;51.136;16.886;2024-03-02T04:13:40;76.53;;;53.53;;
6955;SDS011;50345;51.136;16.886;2024-03-02T04:16:05;74.23;;;53.93;;
6955;SDS011;50345;51.136;16.886;2024-03-02T04:18:31;69.53;;;53.70;;
6955;SDS011;50345;51.136;16.886;2024-03-02T04:20:57;71.70;;;53.37;;
6955;SDS011;50345;51.136;16.886;2024-03-02T04:23:24;73.13;;;57.50;;
6955;SDS011;50345;51.136;16.886;2024-03-02T04:25:50;68.07;;;53.97;;
6955;SDS011;50345;51.136;16.886;2024-03-02T04:28:16;68.57;;;53.60;;
6955;SDS011;50345;51.136;16.886;2024-03-02T04:30:42;75.15;;;53.75;;
6955;SDS011;50345;51.136;16.886;2024-03-02T04:33:08;74.63;;;53.90;;
6955;SDS011;50345;51.136;16.886;2024-03-02T04:35:35;70.50;;;55.08;;
6955;SDS011;50345;51.136;16.886;2024-03-02T04:38:01;76.85;;;58.20;;
6955;SDS011;50345;51.136;16.886;2024-03-02T04:40:27;70.17;;;53.83;;
6955;SDS011;50345;51.136;16.886;2024-03-02T04:42:52;70.13;;;56.60;;
6955;SDS011;50345;51.136;16.886;2024-03-02T04:45:18;69.73;;;54.97;;
6955;SDS011;50345;51.136;16.886;2024-03-02T04:47:43;74.53;;;53.10;;
6955;SDS011;50345;51.136;16.886;2024-03-02T04:50:09;69.60;;;55.37;;
6955;SDS011;50345;51.136;16.886;2024-03-02T04:52:35;73.77;;;52.57;;
6955;SDS011;50345;51.136;16.886;2024-03-02T04:55:01;68.53;;;51.70;;
6955;SDS011;50345;51.136;16.886;2024-03-02T04:57:45;68.60;;;52.63;;
6955;SDS011;50345;51.136;16.886;2024-03-02T05:00:12;75.03;;;58.20;;
6955;SDS011;50345;51.136;16.886;2024-03-02T05:02:38;66.85;;;54.80;;
6955;SDS011;50345;51.136;16.886;2024-03-02T05:05:04;69.70;;;53.37;;
6955;SDS011;50345;51.136;16.886;2024-03-02T05:07:30;67.00;;;50.60;;
6955;SDS011;50345;51.136;16.886;2024-03-02T05:09:55;63.53;;;51.90;;
6955;SDS011;50345;51.136;16.886;2024-03-02T05:12:21;71.03;;;54.00;;
6955;SDS011;50345;51.136;16.886;2024-03-02T05:15:05;60.33;;;49.65;;
6955;SDS011;50345;51.136;16.886;2024-03-02T05:17:32;65.80;;;53.20;;
6955;SDS011;50345;51.136;16.886;2024-03-02T05:19:57;67.73;;;52.37;;
6955;SDS011;50345;51.136;16.886;2024-03-02T05:22:23;63.17;;;49.33;;
6955;SDS011;50345;51.136;16.886;2024-03-02T05:24:49;66.27;;;49.47;;
6955;SDS011;50345;51.136;16.886;2024-03-02T05:27:14;61.80;;;48.20;;
6955;SDS011;50345;51.136;16.886;2024-03-02T05:29:40;65.83;;;50.27;;
6955;SDS011;50345;51.136;16.886;2024-03-02T05:32:06;58.37;;;47.73;;
6955;SDS011;50345;51.136;16.886;2024-03-02T05:34:31;64.43;;;48.87;;
6955;SDS011;50345;51.136;16.886;2024-03-02T05:36:59;65.50;;;51.22;;
6955;SDS011;50345;51.136;16.886;2024-03-02T05:39:25;67.73;;;50.33;;
6955;SDS011;50345;51.136;16.886;2024-03-02T05:41:51;69.37;;;48.43;;
6955;SDS011;50345;51.136;16.886;2024-03-02T05:44:16;63.40;;;50.73;;
6955;SDS011;50345;51.136;16.886;2024-03-02T05:46:43;66.05;;;50.65;;
6955;SDS011;50345;51.136;16.886;2024-03-02T05:49:09;63.33;;;49.30;;
6955;SDS011;50345;51.136;16.886;2024-03-02T05:51:35;66.43;;;49.90;;
6955;SDS011;50345;51.136;16.886;2024-03-02T05:54:00;64.90;;;49.87;;
6955;SDS011;50345;51.136;16.886;2024-03-02T05:56:26;60.20;;;49.40;;
6955;SDS011;50345;51.136;16.886;2024-03-02T05:58:52;67.30;;;48.35;;
6955;SDS011;50345;51.136;16.886;2024-03-02T06:01:36;60.30;;;50.05;;
6955;SDS011;50345;51.136;16.886;2024-03-02T06:04:02;60.20;;;48.07;;
6955;SDS011;50345;51.136;16.886;2024-03-02T06:06:28;63.13;;;48.73;;
6955;SDS011;50345;51.136;16.886;2024-03-02T06:08:53;62.97;;;48.47;;
6955;SDS011;50345;51.136;16.886;2024-03-02T06:11:19;56.90;;;47.27;;
6955;SDS011;50345;51.136;16.886;2024-03-02T06:13:45;63.73;;;48.47;;
6955;SDS011;50345;51.136;16.886;2024-03-02T06:16:11;57.97;;;44.37;;
6955;SDS011;50345;51.136;16.886;2024-03-02T06:18:36;55.80;;;44.70;;
6955;SDS011;50345;51.136;16.886;2024-03-02T06:21:02;63.47;;;47.83;;
6955;SDS011;50345;51.136;16.886;2024-03-02T06:23:28;63.53;;;46.67;;
6955;SDS011;50345;51.136;16.886;2024-03-02T06:25:54;63.23;;;48.40;;
6955;SDS011;50345;51.136;16.886;2024-03-02T06:28:19;61.33;;;47.10;;
6955;SDS011;50345;51.136;16.886;2024-03-02T06:30:45;70.93;;;49.63;;
6955;SDS011;50345;51.136;16.886;2024-03-02T06:33:11;62.57;;;46.70;;
6955;SDS011;50345;51.136;16.886;2024-03-02T06:35:37;64.00;;;46.97;;
6955;SDS011;50345;51.136;16.886;2024-03-02T06:38:03;56.23;;;47.77;;
6955;SDS011;50345;51.136;16.886;2024-03-02T06:40:28;66.83;;;46.10;;
6955;SDS011;50345;51.136;16.886;2024-03-02T06:42:54;63.10;;;44.23;;
6955;SDS011;50345;51.136;16.886;2024-03-02T06:45:20;58.17;;;44.87;;
6955;SDS011;50345;51.136;16.886;2024-03-02T06:47:45;60.57;;;44.83;;
6955;SDS011;50345;51.136;16.886;2024-03-02T06:50:11;56.73;;;43.83;;
6955;SDS011;50345;51.136;16.886;2024-03-02T06:52:36;57.40;;;46.30;;
6955;SDS011;50345;51.136;16.886;2024-03-02T06:55:02;55.50;;;45.80;;
6955;SDS011;50345;51.136;16.886;2024-03-02T06:57:29;57.80;;;45.80;;
6955;SDS011;50345;51.136;16.886;2024-03-02T06:59:55;55.40;;;45.10;;
6955;SDS011;50345;51.136;16.886;2024-03-02T07:02:23;53.63;;;43.38;;
6955;SDS011;50345;51.136;16.886;2024-03-02T07:04:50;57.20;;;43.78;;
6955;SDS011;50345;51.136;16.886;2024-03-02T07:07:16;57.73;;;45.27;;
6955;SDS011;50345;51.136;16.886;2024-03-02T07:09:42;59.33;;;46.17;;
6955;SDS011;50345;51.136;16.886;2024-03-02T07:12:07;57.50;;;45.33;;
6955;SDS011;50345;51.136;16.886;2024-03-02T07:14:33;63.00;;;47.23;;
6955;SDS011;50345;51.136;16.886;2024-03-02T07:17:22;64.25;;;48.10;;
6955;SDS011;50345;51.136;16.886;2024-03-02T07:19:48;66.00;;;48.63;;
6955;SDS011;50345;51.136;16.886;2024-03-02T07:22:14;56.60;;;43.40;;
6955;SDS011;50345;51.136;16.886;2024-03-02T07:24:42;60.57;;;46.73;;
6955;SDS011;50345;51.136;16.886;2024-03-02T07:27:08;58.58;;;45.63;;
6955;SDS011;50345;51.136;16.886;2024-03-02T07:29:35;55.35;;;46.40;;
6955;SDS011;50345;51.136;16.886;2024-03-02T07:32:01;56.13;;;44.65;;
6955;SDS011;50345;51.136;16.886;2024-03-02T07:34:27;53.57;;;45.40;;
6955;SDS011;50345;51.136;16.886;2024-03-02T07:36:52;53.40;;;45.33;;
6955;SDS011;50345;51.136;16.886;2024-03-02T07:39:18;55.60;;;44.45;;
6955;SDS011;50345;51.136;16.886;2024-03-02T07:41:45;54.97;;;45.30;;
6955;SDS011;50345;51.136;16.886;2024-03-02T07:44:11;58.72;;;46.13;;
6955;SDS011;50345;51.136;16.886;2024-03-02T07:46:39;57.47;;;46.80;;
6955;SDS011;50345;51.136;16.886;2024-03-02T07:49:08;59.50;;;45.33;;
6955;SDS011;50345;51.136;16.886;2024-03-02T07:51:34;47.60;;;41.78;;
6955;SDS011;50345;51.136;16.886;2024-03-02T07:54:01;49.63;;;42.67;;
6955;SDS011;50345;51.136;16.886;2024-03-02T07:56:26;52.30;;;42.77;;
6955;SDS011;50345;51.136;16.886;2024-03-02T07:58:52;59.10;;;45.90;;
6955;SDS011;50345;51.136;16.886;2024-03-02T08:01:18;53.80;;;43.50;;
6955;SDS011;50345;51.136;16.886;2024-03-02T08:03:44;58.10;;;43.20;;
6955;SDS011;50345;51.136;16.886;2024-03-02T08:06:15;57.58;;;43.90;;
6955;SDS011;50345;51.136;16.886;2024-03-02T08:08:41;51.45;;;43.47;;
6955;SDS011;50345;51.136;16.886;2024-03-02T08:11:06;54.93;;;42.70;;
6955;SDS011;50345;51.136;16.886;2024-03-02T08:13:32;48.30;;;42.30;;
6955;SDS011;50345;51.136;16.886;2024-03-02T08:15:57;51.67;;;42.97;;
6955;SDS011;50345;51.136;16.886;2024-03-02T08:18:24;56.33;;;44.00;;
6955;SDS011;50345;51.136;16.886;2024-03-02T08:20:49;45.80;;;40.77;;
6955;SDS011;50345;51.136;16.886;2024-03-02T08:23:15;44.93;;;40.00;;
6955;SDS011;50345;51.136;16.886;2024-03-02T08:25:41;54.93;;;42.93;;
6955;SDS011;50345;51.136;16.886;2024-03-02T08:28:07;46.60;;;39.83;;
6955;SDS011;50345;51.136;16.886;2024-03-02T08:30:33;48.27;;;41.97;;
6955;SDS011;50345;51.136;16.886;2024-03-02T08:32:59;47.47;;;38.57;;
6955;SDS011;50345;51.136;16.886;2024-03-02T08:35:24;45.83;;;38.25;;
6955;SDS011;50345;51.136;16.886;2024-03-02T08:37:51;45.67;;;37.63;;
6955;SDS011;50345;51.136;16.886;2024-03-02T08:40:16;48.83;;;42.03;;
6955;SDS011;50345;51.136;16.886;2024-03-02T08:42:42;43.93;;;39.23;;
6955;SDS011;50345;51.136;16.886;2024-03-02T08:45:08;45.10;;;39.90;;
6955;SDS011;50345;51.136;16.886;2024-03-02T08:47:34;45.17;;;40.40;;
6955;SDS011;50345;51.136;16.886;2024-03-02T08:50:00;47.53;;;39.97;;
6955;SDS011;50345;51.136;16.886;2024-03-02T08:52:26;47.10;;;41.90;;
6955;SDS011;50345;51.136;16.886;2024-03-02T08:54:51;45.27;;;40.30;;
6955;SDS011;50345;51.136;16.886;2024-03-02T08:57:17;52.97;;;41.10;;
6955;SDS011;50345;51.136;16.886;2024-03-02T08:59:43;47.10;;;41.97;;
6955;SDS011;50345;51.136;16.886;2024-03-02T09:02:09;44.97;;;40.20;;
6955;SDS011;50345;51.136;16.886;2024-03-02T09:04:35;44.43;;;38.73;;
6955;SDS011;50345;51.136;16.886;2024-03-02T09:07:01;50.43;;;41.40;;
6955;SDS011;50345;51.136;16.886;2024-03-02T09:09:26;43.70;;;38.90;;
6955;SDS011;50345;51.136;16.886;2024-03-02T09:11:52;46.27;;;39.60;;
6955;SDS011;50345;51.136;16.886;2024-03-02T09:14:20;40.67;;;36.35;;
6955;SDS011;50345;51.136;16.886;2024-03-02T09:16:46;39.78;;;34.75;;
6955;SDS011;50345;51.136;16.886;2024-03-02T09:19:11;41.87;;;36.47;;
6955;SDS011;50345;51.136;16.886;2024-03-02T09:21:37;41.13;;;35.60;;
6955;SDS011;50345;51.136;16.886;2024-03-02T09:24:03;43.07;;;37.03;;
6955;SDS011;50345;51.136;16.886;2024-03-02T09:26:29;43.95;;;39.15;;
6955;SDS011;50345;51.136;16.886;2024-03-02T09:28:54;39.33;;;35.07;;
6955;SDS011;50345;51.136;16.886;2024-03-02T09:31:20;39.97;;;35.70;;
6955;SDS011;50345;51.136;16.886;2024-03-02T09:33:45;43.50;;;36.83;;
6955;SDS011;50345;51.136;16.886;2024-03-02T09:36:18;42.70;;;36.97;;
6955;SDS011;50345;51.136;16.886;2024-03-02T09:38:44;41.70;;;37.20;;
6955;SDS011;50345;51.136;16.886;2024-03-02T09:41:10;37.13;;;33.10;;
6955;SDS011;50345;51.136;16.886;2024-03-02T09:43:36;40.43;;;35.80;;
6955;SDS011;50345;51.136;16.886;2024-03-02T09:46:03;40.43;;;35.20;;
6955;SDS011;50345;51.136;16.886;2024-03-02T09:48:28;38.80;;;33.33;;
6955;SDS011;50345;51.136;16.886;2024-03-02T09:50:54;38.03;;;33.20;;
6955;SDS011;50345;51.136;16.886;2024-03-02T09:53:20;37.57;;;33.67;;
6955;SDS011;50345;51.136;16.886;2024-03-02T09:55:47;42.47;;;34.67;;
6955;SDS011;50345;51.136;16.886;2024-03-02T09:58:12;39.30;;;32.73;;
6955;SDS011;50345;51.136;16.886;2024-03-02T10:00:38;35.53;;;32.00;;
6955;SDS011;50345;51.136;16.886;2024-03-02T10:03:04;35.40;;;31.67;;
6955;SDS011;50345;51.136;16.886;2024-03-02T10:05:30;35.10;;;31.43;;
6955;SDS011;50345;51.136;16.886;2024-03-02T10:08:00;34.80;;;31.10;;
6955;SDS011;50345;51.136;16.886;2024-03-02T10:13:05;39.87;;;34.27;;
6955;SDS011;50345;51.136;16.886;2024-03-02T10:15:32;37.57;;;32.03;;
6955;SDS011;50345;51.136;16.886;2024-03-02T10:17:58;39.27;;;32.77;;
6955;SDS011;50345;51.136;16.886;2024-03-02T10:20:27;37.27;;;33.07;;
6955;SDS011;50345;51.136;16.886;2024-03-02T10:23:10;37.70;;;31.80;;
6955;SDS011;50345;51.136;16.886;2024-03-02T10:25:37;35.93;;;30.90;;
6955;SDS011;50345;51.136;16.886;2024-03-02T10:28:03;33.57;;;30.13;;
6955;SDS011;50345;51.136;16.886;2024-03-02T10:30:31;35.47;;;30.03;;
6955;SDS011;50345;51.136;16.886;2024-03-02T10:32:57;39.20;;;33.77;;
6955;SDS011;50345;51.136;16.886;2024-03-02T10:35:22;37.80;;;31.73;;
6955;SDS011;50345;51.136;16.886;2024-03-02T10:37:49;35.13;;;31.60;;
6955;SDS011;50345;51.136;16.886;2024-03-02T10:40:15;37.07;;;31.87;;
6955;SDS011;50345;51.136;16.886;2024-03-02T10:42:41;35.03;;;31.20;;
6955;SDS011;50345;51.136;16.886;2024-03-02T10:45:09;33.93;;;29.53;;
6955;SDS011;50345;51.136;16.886;2024-03-02T10:47:38;34.83;;;30.50;;
6955;SDS011;50345;51.136;16.886;2024-03-02T10:50:06;33.50;;;30.17;;
6955;SDS011;50345;51.136;16.886;2024-03-02T10:52:36;37.60;;;29.80;;
6955;SDS011;50345;51.136;16.886;2024-03-02T10:55:02;36.77;;;32.03;;
6955;SDS011;50345;51.136;16.886;2024-03-02T10:57:33;34.83;;;31.10;;
6955;SDS011;50345;51.136;16.886;2024-03-02T11:00:11;35.40;;;30.60;;
6955;SDS011;50345;51.136;16.886;2024-03-02T11:02:42;33.80;;;30.13;;
6955;SDS011;50345;51.136;16.886;2024-03-02T11:05:38;31.00;;;27.80;;
6955;SDS011;50345;51.136;16.886;2024-03-02T11:08:11;32.00;;;28.60;;
6955;SDS011;50345;51.136;16.886;2024-03-02T11:10:41;32.03;;;28.17;;
6955;SDS011;50345;51.136;16.886;2024-03-02T11:13:16;31.97;;;27.37;;
6955;SDS011;50345;51.136;16.886;2024-03-02T11:15:49;31.93;;;27.97;;
6955;SDS011;50345;51.136;16.886;2024-03-02T11:18:18;30.73;;;27.43;;
6955;SDS011;50345;51.136;16.886;2024-03-02T11:20:44;34.83;;;28.23;;
6955;SDS011;50345;51.136;16.886;2024-03-02T11:23:11;32.63;;;29.37;;
6955;SDS011;50345;51.136;16.886;2024-03-02T11:25:37;30.73;;;27.53;;
6955;SDS011;50345;51.136;16.886;2024-03-02T11:28:05;29.37;;;26.37;;
6955;SDS011;50345;51.136;16.886;2024-03-02T11:33:04;28.93;;;25.10;;
6955;SDS011;50345;51.136;16.886;2024-03-02T11:35:34;32.70;;;27.77;;
6955;SDS011;50345;51.136;16.886;2024-03-02T11:38:01;28.63;;;25.90;;
6955;SDS011;50345;51.136;16.886;2024-03-02T11:40:28;26.92;;;24.02;;
6955;SDS011;50345;51.136;16.886;2024-03-02T11:42:55;26.13;;;23.35;;
6955;SDS011;50345;51.136;16.886;2024-03-02T11:45:24;29.95;;;25.13;;
6955;SDS011;50345;51.136;16.886;2024-03-02T11:47:54;26.55;;;23.67;;
6955;SDS011;50345;51.136;16.886;2024-03-02T11:50:30;26.83;;;23.98;;
6955;SDS011;50345;51.136;16.886;2024-03-02T11:52:59;27.10;;;24.40;;
6955;SDS011;50345;51.136;16.886;2024-03-02T11:55:25;28.15;;;25.25;;
6955;SDS011;50345;51.136;16.886;2024-03-02T11:57:52;25.77;;;23.17;;
6955;SDS011;50345;51.136;16.886;2024-03-02T12:00:18;28.70;;;23.75;;
6955;SDS011;50345;51.136;16.886;2024-03-02T12:02:45;28.33;;;25.60;;
6955;SDS011;50345;51.136;16.886;2024-03-02T12:05:14;26.00;;;23.35;;
6955;SDS011;50345;51.136;16.886;2024-03-02T12:07:41;30.27;;;23.80;;
6955;SDS011;50345;51.136;16.886;2024-03-02T12:10:08;27.98;;;24.98;;
6955;SDS011;50345;51.136;16.886;2024-03-02T12:12:34;28.20;;;24.27;;
6955;SDS011;50345;51.136;16.886;2024-03-02T12:15:00;29.00;;;24.93;;
6955;SDS011;50345;51.136;16.886;2024-03-02T12:17:26;27.43;;;24.03;;
6955;SDS011;50345;51.136;16.886;2024-03-02T12:19:51;28.70;;;21.90;;
6955;SDS011;50345;51.136;16.886;2024-03-02T12:22:18;26.60;;;23.75;;
6955;SDS011;50345;51.136;16.886;2024-03-02T12:24:43;25.00;;;22.40;;
6955;SDS011;50345;51.136;16.886;2024-03-02T12:27:12;26.30;;;23.75;;
6955;SDS011;50345;51.136;16.886;2024-03-02T12:29:39;24.93;;;21.87;;
6955;SDS011;50345;51.136;16.886;2024-03-02T12:32:05;23.03;;;20.50;;
6955;SDS011;50345;51.136;16.886;2024-03-02T12:34:31;22.70;;;20.50;;
6955;SDS011;50345;51.136;16.886;2024-03-02T12:36:57;23.63;;;21.20;;
6955;SDS011;50345;51.136;16.886;2024-03-02T12:39:23;23.63;;;20.63;;
6955;SDS011;50345;51.136;16.886;2024-03-02T12:41:49;23.47;;;19.43;;
6955;SDS011;50345;51.136;16.886;2024-03-02T12:44:15;25.30;;;20.10;;
6955;SDS011;50345;51.136;16.886;2024-03-02T12:46:42;22.60;;;20.40;;
6955;SDS011;50345;51.136;16.886;2024-03-02T12:49:08;23.60;;;20.17;;
6955;SDS011;50345;51.136;16.886;2024-03-02T12:51:36;21.87;;;19.50;;
6955;SDS011;50345;51.136;16.886;2024-03-02T12:54:02;20.17;;;17.90;;
6955;SDS011;50345;51.136;16.886;2024-03-02T12:56:30;21.23;;;19.13;;
6955;SDS011;50345;51.136;16.886;2024-03-02T12:58:56;22.60;;;19.80;;
6955;SDS011;50345;51.136;16.886;2024-03-02T13:01:22;20.40;;;18.37;;
6955;SDS011;50345;51.136;16.886;2024-03-02T13:03:49;18.67;;;16.80;;
6955;SDS011;50345;51.136;16.886;2024-03-02T13:06:17;22.17;;;19.33;;
6955;SDS011;50345;51.136;16.886;2024-03-02T13:08:44;19.23;;;17.27;;
6955;SDS011;50345;51.136;16.886;2024-03-02T13:11:11;23.80;;;17.70;;
6955;SDS011;50345;51.136;16.886;2024-03-02T13:13:36;25.20;;;19.97;;
6955;SDS011;50345;51.136;16.886;2024-03-02T13:16:04;22.70;;;19.03;;
6955;SDS011;50345;51.136;16.886;2024-03-02T13:18:33;24.40;;;21.87;;
6955;SDS011;50345;51.136;16.886;2024-03-02T13:20:59;25.53;;;22.83;;
6955;SDS011;50345;51.136;16.886;2024-03-02T13:23:24;26.10;;;21.30;;
6955;SDS011;50345;51.136;16.886;2024-03-02T13:25:50;26.30;;;21.20;;
6955;SDS011;50345;51.136;16.886;2024-03-02T13:28:15;26.07;;;23.33;;
6955;SDS011;50345;51.136;16.886;2024-03-02T13:30:41;23.90;;;21.20;;
6955;SDS011;50345;51.136;16.886;2024-03-02T13:33:07;27.03;;;23.07;;
6955;SDS011;50345;51.136;16.886;2024-03-02T13:35:32;24.47;;;21.97;;
6955;SDS011;50345;51.136;16.886;2024-03-02T13:37:58;22.93;;;20.60;;
6955;SDS011;50345;51.136;16.886;2024-03-02T13:40:24;24.03;;;20.27;;
6955;SDS011;50345;51.136;16.886;2024-03-02T13:42:49;22.50;;;20.30;;
6955;SDS011;50345;51.136;16.886;2024-03-02T13:45:16;23.70;;;21.30;;
6955;SDS011;50345;51.136;16.886;2024-03-02T13:47:43;23.07;;;20.07;;
6955;SDS011;50345;51.136;16.886;2024-03-02T13:50:09;26.80;;;20.50;;
6955;SDS011;50345;51.136;16.886;2024-03-02T13:52:35;22.30;;;19.93;;
6955;SDS011;50345;51.136;16.886;2024-03-02T13:55:00;21.53;;;19.10;;
6955;SDS011;50345;51.136;16.886;2024-03-02T13:57:26;23.97;;;19.97;;
6955;SDS011;50345;51.136;16.886;2024-03-02T13:59:53;32.70;;;22.50;;
6955;SDS011;50345;51.136;16.886;2024-03-02T14:02:19;22.17;;;19.50;;
6955;SDS011;50345;51.136;16.886;2024-03-02T14:04:45;21.80;;;19.53;;
6955;SDS011;50345;51.136;16.886;2024-03-02T14:07:13;23.30;;;20.90;;
6955;SDS011;50345;51.136;16.886;2024-03-02T14:09:39;23.97;;;21.47;;
6955;SDS011;50345;51.136;16.886;2024-03-02T14:12:04;27.37;;;24.17;;
6955;SDS011;50345;51.136;16.886;2024-03-02T14:14:31;31.17;;;26.42;;
6955;SDS011;50345;51.136;16.886;2024-03-02T14:16:56;26.07;;;21.10;;
6955;SDS011;50345;51.136;16.886;2024-03-02T14:19:28;23.50;;;19.45;;
6955;SDS011;50345;51.136;16.886;2024-03-02T14:21:54;21.30;;;19.13;;
6955;SDS011;50345;51.136;16.886;2024-03-02T14:24:19;21.07;;;18.83;;